sensor_id;sensor_type;location;lat;lon;timestamp;P1;durP1;ratioP1;P2;durP2;ratioP2
71183;SDS011;58887;51.980;4.464;2023-07-24T00:00:07;2.98;;;2.98;;
71183;SDS011;58887;51.980;4.464;2023-07-24T00:02:33;2.69;;;2.69;;
71183;SDS011;58887;51.980;4.464;2023-07-24T00:05:01;2.59;;;2.59;;
71183;SDS011;58887;51.980;4.464;2023-07-24T00:07:26;2.47;;;2.47;;
71183;SDS011;58887;51.980;4.464;2023-07-24T00:09:52;2.71;;;2.71;;
71183;SDS011;58887;51.980;4.464;2023-07-24T00:14:46;2.61;;;2.61;;
71183;SDS011;58887;51.980;4.464;2023-07-24T00:17:13;2.77;;;2.77;;
71183;SDS011;58887;51.980;4.464;2023-07-24T00:19:39;2.83;;;2.80;;
71183;SDS011;58887;51.980;4.464;2023-07-24T00:22:12;2.99;;;2.98;;
71183;SDS011;58887;51.980;4.464;2023-07-24T00:24:38;2.85;;;2.85;;
71183;SDS011;58887;51.980;4.464;2023-07-24T00:29:49;2.81;;;2.81;;
71183;SDS011;58887;51.980;4.464;2023-07-24T00:32:18;2.40;;;2.38;;
71183;SDS011;58887;51.980;4.464;2023-07-24T00:34:43;2.48;;;2.47;;
71183;SDS011;58887;51.980;4.464;2023-07-24T00:37:09;2.52;;;2.52;;
71183;SDS011;58887;51.980;4.464;2023-07-24T00:39:35;2.68;;;2.68;;
71183;SDS011;58887;51.980;4.464;2023-07-24T00:42:01;2.45;;;2.45;;
71183;SDS011;58887;51.980;4.464;2023-07-24T00:44:27;2.91;;;2.91;;
71183;SDS011;58887;51.980;4.464;2023-07-24T00:46:54;2.78;;;2.78;;
71183;SDS011;58887;51.980;4.464;2023-07-24T00:49:20;2.48;;;2.48;;
71183;SDS011;58887;51.980;4.464;2023-07-24T00:51:54;2.67;;;2.67;;
71183;SDS011;58887;51.980;4.464;2023-07-24T00:54:20;2.77;;;2.77;;
71183;SDS011;58887;51.980;4.464;2023-07-24T00:56:53;2.66;;;2.66;;
71183;SDS011;58887;51.980;4.464;2023-07-24T00:59:21;2.92;;;2.92;;
71183;SDS011;58887;51.980;4.464;2023-07-24T01:01:47;3.10;;;3.10;;
71183;SDS011;58887;51.980;4.464;2023-07-24T01:04:14;2.74;;;2.74;;
71183;SDS011;58887;51.980;4.464;2023-07-24T01:09:10;2.63;;;2.63;;
71183;SDS011;58887;51.980;4.464;2023-07-24T01:11:36;2.57;;;2.57;;
71183;SDS011;58887;51.980;4.464;2023-07-24T01:14:23;2.42;;;2.42;;
71183;SDS011;58887;51.980;4.464;2023-07-24T01:16:58;2.59;;;2.59;;
71183;SDS011;58887;51.980;4.464;2023-07-24T01:25:05;2.86;;;2.86;;
71183;SDS011;58887;51.980;4.464;2023-07-24T01:27:35;3.19;;;3.19;;
71183;SDS011;58887;51.980;4.464;2023-07-24T01:30:06;3.43;;;3.43;;
71183;SDS011;58887;51.980;4.464;2023-07-24T01:32:32;3.06;;;3.06;;
71183;SDS011;58887;51.980;4.464;2023-07-24T01:34:58;3.10;;;3.10;;
71183;SDS011;58887;51.980;4.464;2023-07-24T01:37:24;3.00;;;3.00;;
71183;SDS011;58887;51.980;4.464;2023-07-24T01:39:52;3.36;;;3.36;;
71183;SDS011;58887;51.980;4.464;2023-07-24T01:42:27;3.07;;;3.07;;
71183;SDS011;58887;51.980;4.464;2023-07-24T01:44:54;3.57;;;3.57;;
71183;SDS011;58887;51.980;4.464;2023-07-24T01:50:08;3.19;;;3.15;;
71183;SDS011;58887;51.980;4.464;2023-07-24T01:52:34;3.41;;;3.41;;
71183;SDS011;58887;51.980;4.464;2023-07-24T01:55:00;3.30;;;3.30;;
71183;SDS011;58887;51.980;4.464;2023-07-24T01:57:27;3.17;;;3.17;;
71183;SDS011;58887;51.980;4.464;2023-07-24T01:59:52;3.46;;;3.46;;
71183;SDS011;58887;51.980;4.464;2023-07-24T02:02:27;3.52;;;3.52;;
71183;SDS011;58887;51.980;4.464;2023-07-24T02:04:52;3.49;;;3.49;;
71183;SDS011;58887;51.980;4.464;2023-07-24T02:07:17;3.13;;;3.13;;
71183;SDS011;58887;51.980;4.464;2023-07-24T02:09:43;3.62;;;3.61;;
71183;SDS011;58887;51.980;4.464;2023-07-24T02:12:16;3.67;;;3.67;;
71183;SDS011;58887;51.980;4.464;2023-07-24T02:14:46;3.29;;;3.29;;
71183;SDS011;58887;51.980;4.464;2023-07-24T02:17:21;3.39;;;3.39;;
71183;SDS011;58887;51.980;4.464;2023-07-24T02:19:50;3.39;;;3.39;;
71183;SDS011;58887;51.980;4.464;2023-07-24T02:22:17;3.48;;;3.47;;
71183;SDS011;58887;51.980;4.464;2023-07-24T02:24:43;3.67;;;3.67;;
71183;SDS011;58887;51.980;4.464;2023-07-24T02:27:24;3.49;;;3.49;;
71183;SDS011;58887;51.980;4.464;2023-07-24T02:29:56;3.51;;;3.51;;
71183;SDS011;58887;51.980;4.464;2023-07-24T02:32:22;3.67;;;3.67;;
71183;SDS011;58887;51.980;4.464;2023-07-24T02:34:51;3.52;;;3.52;;
71183;SDS011;58887;51.980;4.464;2023-07-24T02:37:19;3.30;;;3.30;;
71183;SDS011;58887;51.980;4.464;2023-07-24T02:39:45;2.99;;;2.99;;
71183;SDS011;58887;51.980;4.464;2023-07-24T02:42:11;3.15;;;3.14;;
71183;SDS011;58887;51.980;4.464;2023-07-24T02:44:37;3.23;;;3.23;;
71183;SDS011;58887;51.980;4.464;2023-07-24T02:47:05;3.77;;;3.77;;
71183;SDS011;58887;51.980;4.464;2023-07-24T02:49:31;3.46;;;3.46;;
71183;SDS011;58887;51.980;4.464;2023-07-24T02:52:00;3.71;;;3.70;;
71183;SDS011;58887;51.980;4.464;2023-07-24T02:54:28;3.66;;;3.66;;
71183;SDS011;58887;51.980;4.464;2023-07-24T02:56:53;3.51;;;3.51;;
71183;SDS011;58887;51.980;4.464;2023-07-24T02:59:19;3.90;;;3.89;;
71183;SDS011;58887;51.980;4.464;2023-07-24T03:01:46;3.68;;;3.68;;
71183;SDS011;58887;51.980;4.464;2023-07-24T03:04:12;3.89;;;3.89;;
71183;SDS011;58887;51.980;4.464;2023-07-24T03:06:42;3.76;;;3.76;;
71183;SDS011;58887;51.980;4.464;2023-07-24T03:09:08;3.68;;;3.68;;
71183;SDS011;58887;51.980;4.464;2023-07-24T03:11:38;3.58;;;3.58;;
71183;SDS011;58887;51.980;4.464;2023-07-24T03:14:08;3.68;;;3.68;;
71183;SDS011;58887;51.980;4.464;2023-07-24T03:16:38;3.74;;;3.73;;
71183;SDS011;58887;51.980;4.464;2023-07-24T03:19:08;3.93;;;3.93;;
71183;SDS011;58887;51.980;4.464;2023-07-24T03:21:33;3.45;;;3.45;;
71183;SDS011;58887;51.980;4.464;2023-07-24T03:23:59;3.24;;;3.24;;
71183;SDS011;58887;51.980;4.464;2023-07-24T03:26:25;3.36;;;3.36;;
71183;SDS011;58887;51.980;4.464;2023-07-24T03:28:51;3.20;;;3.20;;
71183;SDS011;58887;51.980;4.464;2023-07-24T03:31:16;3.39;;;3.39;;
71183;SDS011;58887;51.980;4.464;2023-07-24T03:33:42;3.13;;;3.13;;
71183;SDS011;58887;51.980;4.464;2023-07-24T03:36:08;3.09;;;3.09;;
71183;SDS011;58887;51.980;4.464;2023-07-24T03:38:36;3.20;;;3.20;;
71183;SDS011;58887;51.980;4.464;2023-07-24T03:41:01;3.20;;;3.20;;
71183;SDS011;58887;51.980;4.464;2023-07-24T03:43:27;3.51;;;3.51;;
71183;SDS011;58887;51.980;4.464;2023-07-24T03:45:54;3.07;;;3.06;;
71183;SDS011;58887;51.980;4.464;2023-07-24T03:51:08;3.31;;;3.20;;
71183;SDS011;58887;51.980;4.464;2023-07-24T03:53:34;3.08;;;3.01;;
71183;SDS011;58887;51.980;4.464;2023-07-24T03:55:59;3.08;;;3.04;;
71183;SDS011;58887;51.980;4.464;2023-07-24T03:58:27;3.17;;;3.15;;
71183;SDS011;58887;51.980;4.464;2023-07-24T04:00:52;3.32;;;3.29;;
71183;SDS011;58887;51.980;4.464;2023-07-24T04:03:20;2.97;;;2.95;;
71183;SDS011;58887;51.980;4.464;2023-07-24T04:05:51;2.98;;;2.97;;
71183;SDS011;58887;51.980;4.464;2023-07-24T04:08:19;2.96;;;2.94;;
71183;SDS011;58887;51.980;4.464;2023-07-24T04:10:45;3.11;;;3.09;;
71183;SDS011;58887;51.980;4.464;2023-07-24T04:13:11;3.27;;;3.25;;
71183;SDS011;58887;51.980;4.464;2023-07-24T04:15:41;3.11;;;3.10;;
71183;SDS011;58887;51.980;4.464;2023-07-24T04:18:06;3.34;;;3.32;;
71183;SDS011;58887;51.980;4.464;2023-07-24T04:20:39;3.02;;;3.00;;
71183;SDS011;58887;51.980;4.464;2023-07-24T04:23:05;3.22;;;3.20;;
71183;SDS011;58887;51.980;4.464;2023-07-24T04:25:31;3.10;;;3.06;;
71183;SDS011;58887;51.980;4.464;2023-07-24T04:27:57;2.97;;;2.93;;
71183;SDS011;58887;51.980;4.464;2023-07-24T04:30:22;3.00;;;2.99;;
71183;SDS011;58887;51.980;4.464;2023-07-24T04:32:47;2.62;;;2.61;;
71183;SDS011;58887;51.980;4.464;2023-07-24T04:35:14;3.15;;;3.14;;
71183;SDS011;58887;51.980;4.464;2023-07-24T04:37:41;2.71;;;2.70;;
71183;SDS011;58887;51.980;4.464;2023-07-24T04:40:07;2.83;;;2.83;;
71183;SDS011;58887;51.980;4.464;2023-07-24T04:42:33;3.01;;;3.00;;
71183;SDS011;58887;51.980;4.464;2023-07-24T04:44:58;3.02;;;3.01;;
71183;SDS011;58887;51.980;4.464;2023-07-24T04:47:25;2.88;;;2.86;;
71183;SDS011;58887;51.980;4.464;2023-07-24T04:49:51;2.74;;;2.73;;
71183;SDS011;58887;51.980;4.464;2023-07-24T04:54:59;2.92;;;2.90;;
71183;SDS011;58887;51.980;4.464;2023-07-24T04:57:25;2.89;;;2.87;;
71183;SDS011;58887;51.980;4.464;2023-07-24T04:59:50;2.93;;;2.89;;
71183;SDS011;58887;51.980;4.464;2023-07-24T05:02:16;2.79;;;2.76;;
71183;SDS011;58887;51.980;4.464;2023-07-24T05:04:41;2.78;;;2.75;;
71183;SDS011;58887;51.980;4.464;2023-07-24T05:07:07;2.67;;;2.63;;
71183;SDS011;58887;51.980;4.464;2023-07-24T05:09:32;2.61;;;2.56;;
71183;SDS011;58887;51.980;4.464;2023-07-24T05:11:58;2.51;;;2.49;;
71183;SDS011;58887;51.980;4.464;2023-07-24T05:14:23;2.44;;;2.43;;
71183;SDS011;58887;51.980;4.464;2023-07-24T05:16:49;2.22;;;2.22;;
71183;SDS011;58887;51.980;4.464;2023-07-24T05:19:20;2.46;;;2.46;;
71183;SDS011;58887;51.980;4.464;2023-07-24T05:21:49;2.31;;;2.30;;
71183;SDS011;58887;51.980;4.464;2023-07-24T05:24:14;2.54;;;2.51;;
71183;SDS011;58887;51.980;4.464;2023-07-24T05:26:40;2.40;;;2.38;;
71183;SDS011;58887;51.980;4.464;2023-07-24T05:29:06;2.37;;;2.37;;
71183;SDS011;58887;51.980;4.464;2023-07-24T05:31:33;2.21;;;2.21;;
71183;SDS011;58887;51.980;4.464;2023-07-24T05:34:00;2.44;;;2.39;;
71183;SDS011;58887;51.980;4.464;2023-07-24T05:36:29;2.50;;;2.41;;
71183;SDS011;58887;51.980;4.464;2023-07-24T05:38:56;2.45;;;2.37;;
71183;SDS011;58887;51.980;4.464;2023-07-24T05:41:22;2.38;;;2.29;;
71183;SDS011;58887;51.980;4.464;2023-07-24T05:43:48;2.15;;;2.11;;
71183;SDS011;58887;51.980;4.464;2023-07-24T05:46:15;2.24;;;2.22;;
71183;SDS011;58887;51.980;4.464;2023-07-24T05:48:42;1.94;;;1.93;;
71183;SDS011;58887;51.980;4.464;2023-07-24T05:51:09;2.43;;;2.38;;
71183;SDS011;58887;51.980;4.464;2023-07-24T05:53:36;2.15;;;2.11;;
71183;SDS011;58887;51.980;4.464;2023-07-24T05:56:03;2.03;;;2.00;;
71183;SDS011;58887;51.980;4.464;2023-07-24T05:58:29;2.32;;;2.30;;
71183;SDS011;58887;51.980;4.464;2023-07-24T06:00:58;2.23;;;2.21;;
71183;SDS011;58887;51.980;4.464;2023-07-24T06:03:35;2.40;;;2.38;;
71183;SDS011;58887;51.980;4.464;2023-07-24T06:06:09;2.29;;;2.26;;
71183;SDS011;58887;51.980;4.464;2023-07-24T06:14:20;2.37;;;2.35;;
71183;SDS011;58887;51.980;4.464;2023-07-24T06:16:47;2.59;;;2.56;;
71183;SDS011;58887;51.980;4.464;2023-07-24T06:21:58;2.65;;;2.59;;
71183;SDS011;58887;51.980;4.464;2023-07-24T06:24:23;2.88;;;2.82;;
71183;SDS011;58887;51.980;4.464;2023-07-24T06:26:50;2.71;;;2.64;;
71183;SDS011;58887;51.980;4.464;2023-07-24T06:29:15;2.69;;;2.63;;
71183;SDS011;58887;51.980;4.464;2023-07-24T06:31:43;2.72;;;2.68;;
71183;SDS011;58887;51.980;4.464;2023-07-24T06:34:08;2.54;;;2.52;;
71183;SDS011;58887;51.980;4.464;2023-07-24T06:36:35;2.74;;;2.73;;
71183;SDS011;58887;51.980;4.464;2023-07-24T06:39:01;2.43;;;2.43;;
71183;SDS011;58887;51.980;4.464;2023-07-24T06:41:27;2.60;;;2.60;;
71183;SDS011;58887;51.980;4.464;2023-07-24T06:43:52;2.66;;;2.66;;
71183;SDS011;58887;51.980;4.464;2023-07-24T06:46:18;2.32;;;2.32;;
71183;SDS011;58887;51.980;4.464;2023-07-24T06:48:43;2.12;;;2.12;;
71183;SDS011;58887;51.980;4.464;2023-07-24T06:51:09;2.33;;;2.33;;
71183;SDS011;58887;51.980;4.464;2023-07-24T06:53:34;2.43;;;2.39;;
71183;SDS011;58887;51.980;4.464;2023-07-24T06:56:00;2.52;;;2.49;;
71183;SDS011;58887;51.980;4.464;2023-07-24T06:58:26;2.63;;;2.61;;
71183;SDS011;58887;51.980;4.464;2023-07-24T07:00:53;2.47;;;2.45;;
71183;SDS011;58887;51.980;4.464;2023-07-24T07:03:18;2.64;;;2.61;;
71183;SDS011;58887;51.980;4.464;2023-07-24T07:05:44;2.22;;;2.20;;
71183;SDS011;58887;51.980;4.464;2023-07-24T07:08:09;2.56;;;2.54;;
71183;SDS011;58887;51.980;4.464;2023-07-24T07:10:35;2.42;;;2.39;;
71183;SDS011;58887;51.980;4.464;2023-07-24T07:16:02;2.01;;;1.99;;
71183;SDS011;58887;51.980;4.464;2023-07-24T07:18:27;2.39;;;2.39;;
71183;SDS011;58887;51.980;4.464;2023-07-24T07:23:23;2.42;;;2.42;;
71183;SDS011;58887;51.980;4.464;2023-07-24T07:25:50;2.30;;;2.30;;
71183;SDS011;58887;51.980;4.464;2023-07-24T07:28:23;2.31;;;2.31;;
71183;SDS011;58887;51.980;4.464;2023-07-24T07:30:51;2.39;;;2.39;;
71183;SDS011;58887;51.980;4.464;2023-07-24T07:33:20;2.54;;;2.54;;
71183;SDS011;58887;51.980;4.464;2023-07-24T07:36:02;2.32;;;2.32;;
71183;SDS011;58887;51.980;4.464;2023-07-24T07:38:29;2.37;;;2.34;;
71183;SDS011;58887;51.980;4.464;2023-07-24T07:40:56;2.18;;;2.17;;
71183;SDS011;58887;51.980;4.464;2023-07-24T07:43:36;2.38;;;2.38;;
71183;SDS011;58887;51.980;4.464;2023-07-24T07:46:02;2.25;;;2.25;;
71183;SDS011;58887;51.980;4.464;2023-07-24T07:51:27;2.22;;;2.19;;
71183;SDS011;58887;51.980;4.464;2023-07-24T07:54:06;2.06;;;2.02;;
71183;SDS011;58887;51.980;4.464;2023-07-24T07:56:34;2.45;;;2.45;;
71183;SDS011;58887;51.980;4.464;2023-07-24T07:59:00;2.28;;;2.28;;
71183;SDS011;58887;51.980;4.464;2023-07-24T08:01:25;2.23;;;2.23;;
71183;SDS011;58887;51.980;4.464;2023-07-24T08:03:53;2.25;;;2.25;;
71183;SDS011;58887;51.980;4.464;2023-07-24T08:06:24;2.34;;;2.33;;
71183;SDS011;58887;51.980;4.464;2023-07-24T08:11:20;2.07;;;2.07;;
71183;SDS011;58887;51.980;4.464;2023-07-24T08:19:22;1.91;;;1.91;;
71183;SDS011;58887;51.980;4.464;2023-07-24T08:21:53;2.21;;;2.21;;
71183;SDS011;58887;51.980;4.464;2023-07-24T08:24:20;1.86;;;1.86;;
71183;SDS011;58887;51.980;4.464;2023-07-24T08:26:56;2.03;;;2.03;;
71183;SDS011;58887;51.980;4.464;2023-07-24T08:34:55;2.16;;;2.16;;
71183;SDS011;58887;51.980;4.464;2023-07-24T08:37:23;2.40;;;2.40;;
71183;SDS011;58887;51.980;4.464;2023-07-24T08:39:48;2.14;;;2.14;;
71183;SDS011;58887;51.980;4.464;2023-07-24T08:42:16;2.10;;;2.10;;
71183;SDS011;58887;51.980;4.464;2023-07-24T08:44:47;2.53;;;2.53;;
71183;SDS011;58887;51.980;4.464;2023-07-24T08:49:54;2.19;;;2.19;;
71183;SDS011;58887;51.980;4.464;2023-07-24T08:52:26;2.15;;;2.15;;
71183;SDS011;58887;51.980;4.464;2023-07-24T08:55:01;2.11;;;2.11;;
71183;SDS011;58887;51.980;4.464;2023-07-24T08:57:29;2.30;;;2.30;;
71183;SDS011;58887;51.980;4.464;2023-07-24T08:59:54;2.32;;;2.32;;
71183;SDS011;58887;51.980;4.464;2023-07-24T09:02:20;1.87;;;1.87;;
71183;SDS011;58887;51.980;4.464;2023-07-24T09:04:45;1.61;;;1.61;;
71183;SDS011;58887;51.980;4.464;2023-07-24T09:07:11;1.87;;;1.87;;
71183;SDS011;58887;51.980;4.464;2023-07-24T09:09:37;2.05;;;2.05;;
71183;SDS011;58887;51.980;4.464;2023-07-24T09:12:04;2.22;;;2.22;;
71183;SDS011;58887;51.980;4.464;2023-07-24T09:14:30;2.16;;;2.16;;
71183;SDS011;58887;51.980;4.464;2023-07-24T09:19:28;1.97;;;1.97;;
71183;SDS011;58887;51.980;4.464;2023-07-24T09:21:54;1.92;;;1.92;;
71183;SDS011;58887;51.980;4.464;2023-07-24T09:24:20;2.09;;;2.09;;
71183;SDS011;58887;51.980;4.464;2023-07-24T09:26:49;1.74;;;1.73;;
71183;SDS011;58887;51.980;4.464;2023-07-24T09:29:16;1.84;;;1.84;;
71183;SDS011;58887;51.980;4.464;2023-07-24T09:31:42;1.98;;;1.98;;
71183;SDS011;58887;51.980;4.464;2023-07-24T09:34:15;1.89;;;1.89;;
71183;SDS011;58887;51.980;4.464;2023-07-24T09:36:42;1.92;;;1.92;;
71183;SDS011;58887;51.980;4.464;2023-07-24T09:39:10;2.10;;;2.10;;
71183;SDS011;58887;51.980;4.464;2023-07-24T09:41:37;1.94;;;1.94;;
71183;SDS011;58887;51.980;4.464;2023-07-24T09:44:04;2.18;;;2.18;;
71183;SDS011;58887;51.980;4.464;2023-07-24T09:46:30;2.20;;;2.20;;
71183;SDS011;58887;51.980;4.464;2023-07-24T09:48:57;2.20;;;2.20;;
71183;SDS011;58887;51.980;4.464;2023-07-24T09:51:23;2.38;;;2.38;;
71183;SDS011;58887;51.980;4.464;2023-07-24T09:54:00;2.01;;;2.01;;
71183;SDS011;58887;51.980;4.464;2023-07-24T09:56:28;2.25;;;2.25;;
71183;SDS011;58887;51.980;4.464;2023-07-24T09:58:56;2.28;;;2.28;;
71183;SDS011;58887;51.980;4.464;2023-07-24T10:01:25;2.44;;;2.44;;
71183;SDS011;58887;51.980;4.464;2023-07-24T10:03:51;2.53;;;2.53;;
71183;SDS011;58887;51.980;4.464;2023-07-24T10:06:18;2.52;;;2.52;;
71183;SDS011;58887;51.980;4.464;2023-07-24T10:08:44;2.46;;;2.46;;
71183;SDS011;58887;51.980;4.464;2023-07-24T10:11:11;2.55;;;2.55;;
71183;SDS011;58887;51.980;4.464;2023-07-24T10:13:40;2.49;;;2.49;;
71183;SDS011;58887;51.980;4.464;2023-07-24T10:16:07;2.12;;;2.12;;
71183;SDS011;58887;51.980;4.464;2023-07-24T10:18:34;2.71;;;2.71;;
71183;SDS011;58887;51.980;4.464;2023-07-24T10:21:06;2.32;;;2.32;;
71183;SDS011;58887;51.980;4.464;2023-07-24T10:23:34;2.52;;;2.52;;
71183;SDS011;58887;51.980;4.464;2023-07-24T10:26:04;2.27;;;2.27;;
71183;SDS011;58887;51.980;4.464;2023-07-24T10:28:32;2.10;;;2.10;;
71183;SDS011;58887;51.980;4.464;2023-07-24T10:31:03;2.24;;;2.24;;
71183;SDS011;58887;51.980;4.464;2023-07-24T10:33:34;2.25;;;2.25;;
71183;SDS011;58887;51.980;4.464;2023-07-24T10:36:07;2.06;;;2.06;;
71183;SDS011;58887;51.980;4.464;2023-07-24T10:38:39;2.29;;;2.29;;
71183;SDS011;58887;51.980;4.464;2023-07-24T10:41:06;1.96;;;1.96;;
71183;SDS011;58887;51.980;4.464;2023-07-24T10:43:46;2.07;;;2.07;;
71183;SDS011;58887;51.980;4.464;2023-07-24T10:46:15;2.11;;;2.11;;
71183;SDS011;58887;51.980;4.464;2023-07-24T10:48:44;2.09;;;2.09;;
71183;SDS011;58887;51.980;4.464;2023-07-24T10:51:11;2.13;;;2.13;;
71183;SDS011;58887;51.980;4.464;2023-07-24T10:53:41;2.16;;;2.16;;
71183;SDS011;58887;51.980;4.464;2023-07-24T10:56:10;2.13;;;2.13;;
71183;SDS011;58887;51.980;4.464;2023-07-24T10:58:35;2.00;;;2.00;;
71183;SDS011;58887;51.980;4.464;2023-07-24T11:01:03;2.12;;;2.12;;
71183;SDS011;58887;51.980;4.464;2023-07-24T11:03:31;2.06;;;2.06;;
71183;SDS011;58887;51.980;4.464;2023-07-24T11:05:57;2.27;;;2.27;;
71183;SDS011;58887;51.980;4.464;2023-07-24T11:08:24;2.18;;;2.18;;
71183;SDS011;58887;51.980;4.464;2023-07-24T11:10:51;2.24;;;2.24;;
71183;SDS011;58887;51.980;4.464;2023-07-24T11:13:19;2.65;;;2.65;;
71183;SDS011;58887;51.980;4.464;2023-07-24T11:15:46;2.32;;;2.32;;
71183;SDS011;58887;51.980;4.464;2023-07-24T11:18:12;2.25;;;2.25;;
71183;SDS011;58887;51.980;4.464;2023-07-24T11:20:38;2.24;;;2.24;;
71183;SDS011;58887;51.980;4.464;2023-07-24T11:23:12;2.54;;;2.54;;
71183;SDS011;58887;51.980;4.464;2023-07-24T11:25:39;2.87;;;2.87;;
71183;SDS011;58887;51.980;4.464;2023-07-24T11:28:05;2.66;;;2.66;;
71183;SDS011;58887;51.980;4.464;2023-07-24T11:30:33;2.56;;;2.56;;
71183;SDS011;58887;51.980;4.464;2023-07-24T11:32:59;2.42;;;2.42;;
71183;SDS011;58887;51.980;4.464;2023-07-24T11:35:27;2.47;;;2.47;;
71183;SDS011;58887;51.980;4.464;2023-07-24T11:37:53;2.35;;;2.35;;
71183;SDS011;58887;51.980;4.464;2023-07-24T11:40:19;2.21;;;2.21;;
71183;SDS011;58887;51.980;4.464;2023-07-24T11:42:47;2.30;;;2.30;;
71183;SDS011;58887;51.980;4.464;2023-07-24T11:45:14;2.50;;;2.50;;
71183;SDS011;58887;51.980;4.464;2023-07-24T12:03:06;1.67;;;1.67;;
71183;SDS011;58887;51.980;4.464;2023-07-24T12:05:45;1.42;;;1.42;;
71183;SDS011;58887;51.980;4.464;2023-07-24T12:08:11;1.41;;;1.41;;
71183;SDS011;58887;51.980;4.464;2023-07-24T12:10:39;1.47;;;1.47;;
71183;SDS011;58887;51.980;4.464;2023-07-24T12:13:07;1.53;;;1.53;;
71183;SDS011;58887;51.980;4.464;2023-07-24T12:15:32;1.54;;;1.54;;
71183;SDS011;58887;51.980;4.464;2023-07-24T12:18:00;1.53;;;1.53;;
71183;SDS011;58887;51.980;4.464;2023-07-24T12:20:27;1.37;;;1.37;;
71183;SDS011;58887;51.980;4.464;2023-07-24T12:22:54;1.54;;;1.54;;
71183;SDS011;58887;51.980;4.464;2023-07-24T12:25:20;1.49;;;1.49;;
71183;SDS011;58887;51.980;4.464;2023-07-24T12:27:46;1.51;;;1.51;;
71183;SDS011;58887;51.980;4.464;2023-07-24T12:30:13;1.44;;;1.44;;
71183;SDS011;58887;51.980;4.464;2023-07-24T12:32:39;1.47;;;1.47;;
71183;SDS011;58887;51.980;4.464;2023-07-24T12:35:04;1.41;;;1.41;;
71183;SDS011;58887;51.980;4.464;2023-07-24T12:37:33;1.38;;;1.38;;
71183;SDS011;58887;51.980;4.464;2023-07-24T12:39:58;1.31;;;1.31;;
71183;SDS011;58887;51.980;4.464;2023-07-24T12:42:24;1.24;;;1.24;;
71183;SDS011;58887;51.980;4.464;2023-07-24T12:44:49;1.28;;;1.28;;
71183;SDS011;58887;51.980;4.464;2023-07-24T12:47:15;1.35;;;1.35;;
71183;SDS011;58887;51.980;4.464;2023-07-24T12:49:40;1.29;;;1.29;;
71183;SDS011;58887;51.980;4.464;2023-07-24T12:52:06;1.13;;;1.13;;
71183;SDS011;58887;51.980;4.464;2023-07-24T12:54:32;1.07;;;1.07;;
71183;SDS011;58887;51.980;4.464;2023-07-24T12:57:00;1.08;;;1.08;;
71183;SDS011;58887;51.980;4.464;2023-07-24T12:59:26;1.14;;;1.14;;
71183;SDS011;58887;51.980;4.464;2023-07-24T13:01:51;1.17;;;1.17;;
71183;SDS011;58887;51.980;4.464;2023-07-24T13:04:18;1.21;;;1.21;;
71183;SDS011;58887;51.980;4.464;2023-07-24T13:06:45;1.15;;;1.15;;
71183;SDS011;58887;51.980;4.464;2023-07-24T13:09:11;0.99;;;0.99;;
71183;SDS011;58887;51.980;4.464;2023-07-24T13:11:38;1.07;;;1.07;;
71183;SDS011;58887;51.980;4.464;2023-07-24T13:14:03;1.01;;;1.01;;
71183;SDS011;58887;51.980;4.464;2023-07-24T13:16:29;1.21;;;1.21;;
71183;SDS011;58887;51.980;4.464;2023-07-24T13:18:54;1.30;;;1.30;;
71183;SDS011;58887;51.980;4.464;2023-07-24T13:21:20;1.36;;;1.36;;
71183;SDS011;58887;51.980;4.464;2023-07-24T13:23:46;1.61;;;1.61;;
71183;SDS011;58887;51.980;4.464;2023-07-24T13:26:13;1.27;;;1.27;;
71183;SDS011;58887;51.980;4.464;2023-07-24T13:28:39;1.24;;;1.24;;
71183;SDS011;58887;51.980;4.464;2023-07-24T13:31:20;1.08;;;1.08;;
71183;SDS011;58887;51.980;4.464;2023-07-24T13:33:48;1.09;;;1.09;;
71183;SDS011;58887;51.980;4.464;2023-07-24T13:36:16;1.16;;;1.16;;
71183;SDS011;58887;51.980;4.464;2023-07-24T13:38:41;1.25;;;1.20;;
71183;SDS011;58887;51.980;4.464;2023-07-24T13:41:07;1.30;;;1.22;;
71183;SDS011;58887;51.980;4.464;2023-07-24T13:43:35;1.25;;;1.17;;
71183;SDS011;58887;51.980;4.464;2023-07-24T13:46:01;1.20;;;1.13;;
71183;SDS011;58887;51.980;4.464;2023-07-24T13:48:30;1.09;;;1.02;;
71183;SDS011;58887;51.980;4.464;2023-07-24T13:50:55;1.26;;;1.18;;
71183;SDS011;58887;51.980;4.464;2023-07-24T13:53:21;1.27;;;1.20;;
71183;SDS011;58887;51.980;4.464;2023-07-24T13:55:47;1.15;;;1.08;;
71183;SDS011;58887;51.980;4.464;2023-07-24T13:58:13;1.20;;;1.13;;
71183;SDS011;58887;51.980;4.464;2023-07-24T14:00:39;1.34;;;1.25;;
71183;SDS011;58887;51.980;4.464;2023-07-24T14:03:04;1.33;;;1.20;;
71183;SDS011;58887;51.980;4.464;2023-07-24T14:05:30;1.17;;;1.06;;
71183;SDS011;58887;51.980;4.464;2023-07-24T14:07:55;1.05;;;0.95;;
71183;SDS011;58887;51.980;4.464;2023-07-24T14:10:21;1.29;;;1.16;;
71183;SDS011;58887;51.980;4.464;2023-07-24T14:12:48;1.36;;;1.21;;
71183;SDS011;58887;51.980;4.464;2023-07-24T14:15:13;1.24;;;1.08;;
71183;SDS011;58887;51.980;4.464;2023-07-24T14:17:39;1.06;;;0.91;;
71183;SDS011;58887;51.980;4.464;2023-07-24T14:20:05;1.21;;;1.03;;
71183;SDS011;58887;51.980;4.464;2023-07-24T14:22:34;1.02;;;0.88;;
71183;SDS011;58887;51.980;4.464;2023-07-24T14:24:59;1.18;;;1.03;;
71183;SDS011;58887;51.980;4.464;2023-07-24T14:27:24;1.00;;;0.88;;
71183;SDS011;58887;51.980;4.464;2023-07-24T14:29:50;0.93;;;0.83;;
71183;SDS011;58887;51.980;4.464;2023-07-24T14:35:05;0.98;;;0.86;;
71183;SDS011;58887;51.980;4.464;2023-07-24T14:37:31;0.88;;;0.79;;
71183;SDS011;58887;51.980;4.464;2023-07-24T14:39:56;0.91;;;0.82;;
71183;SDS011;58887;51.980;4.464;2023-07-24T14:42:22;1.20;;;1.08;;
71183;SDS011;58887;51.980;4.464;2023-07-24T14:44:47;0.92;;;0.81;;
71183;SDS011;58887;51.980;4.464;2023-07-24T14:47:13;1.01;;;0.88;;
71183;SDS011;58887;51.980;4.464;2023-07-24T14:49:38;0.86;;;0.75;;
71183;SDS011;58887;51.980;4.464;2023-07-24T14:52:04;0.87;;;0.76;;
71183;SDS011;58887;51.980;4.464;2023-07-24T14:54:30;0.89;;;0.77;;
71183;SDS011;58887;51.980;4.464;2023-07-24T14:56:55;0.61;;;0.53;;
71183;SDS011;58887;51.980;4.464;2023-07-24T14:59:22;0.78;;;0.67;;
71183;SDS011;58887;51.980;4.464;2023-07-24T15:01:48;0.57;;;0.49;;
71183;SDS011;58887;51.980;4.464;2023-07-24T15:04:13;0.56;;;0.48;;
71183;SDS011;58887;51.980;4.464;2023-07-24T15:06:39;0.62;;;0.53;;
71183;SDS011;58887;51.980;4.464;2023-07-24T15:09:04;0.48;;;0.41;;
71183;SDS011;58887;51.980;4.464;2023-07-24T15:11:30;0.59;;;0.51;;
71183;SDS011;58887;51.980;4.464;2023-07-24T15:13:55;0.44;;;0.37;;
71183;SDS011;58887;51.980;4.464;2023-07-24T15:16:21;0.39;;;0.33;;
71183;SDS011;58887;51.980;4.464;2023-07-24T15:18:46;0.27;;;0.23;;
71183;SDS011;58887;51.980;4.464;2023-07-24T15:21:13;0.42;;;0.36;;
71183;SDS011;58887;51.980;4.464;2023-07-24T15:23:39;0.34;;;0.29;;
71183;SDS011;58887;51.980;4.464;2023-07-24T15:28:33;0.46;;;0.38;;
71183;SDS011;58887;51.980;4.464;2023-07-24T15:30:58;0.82;;;0.68;;
71183;SDS011;58887;51.980;4.464;2023-07-24T15:33:24;0.70;;;0.57;;
71183;SDS011;58887;51.980;4.464;2023-07-24T15:35:49;0.67;;;0.54;;
71183;SDS011;58887;51.980;4.464;2023-07-24T15:38:15;1.01;;;0.80;;
71183;SDS011;58887;51.980;4.464;2023-07-24T15:40:41;0.75;;;0.60;;
71183;SDS011;58887;51.980;4.464;2023-07-24T15:43:08;0.97;;;0.79;;
71183;SDS011;58887;51.980;4.464;2023-07-24T15:45:34;0.81;;;0.68;;
71183;SDS011;58887;51.980;4.464;2023-07-24T15:48:01;0.62;;;0.54;;
71183;SDS011;58887;51.980;4.464;2023-07-24T15:50:26;0.55;;;0.48;;
71183;SDS011;58887;51.980;4.464;2023-07-24T15:52:52;1.06;;;0.94;;
71183;SDS011;58887;51.980;4.464;2023-07-24T15:55:17;1.11;;;0.99;;
71183;SDS011;58887;51.980;4.464;2023-07-24T15:57:44;1.19;;;1.05;;
71183;SDS011;58887;51.980;4.464;2023-07-24T16:00:09;1.16;;;1.03;;
71183;SDS011;58887;51.980;4.464;2023-07-24T16:02:35;1.15;;;1.02;;
71183;SDS011;58887;51.980;4.464;2023-07-24T16:05:03;1.04;;;0.93;;